Smyrna, Michigan
Current Conditions -  °F | °C
As of 8:14 AM on Friday 28 Nov 2014 (Local Time) from KY70 Reporting Station
Overcast Overcast  
Wind Chill: 12°   Ceiling: 2900
Heat Index: 21°   Visibility: 10mi
Dew Point: 11°   Wind: 8mph
Humidity: 66%   Direction: 180°S
Pressure: 30.27"   Gusts: NA
Location:  43.06°N, 85.26°W
Report Text: KY70 281314Z AUTO 18007KT 10SM OVC029 M06/M11 A3027 RMK AO2 T10601114
Loading
Personal Weather Stations






























Interactive Weather Map New forecast layout! Learn more

10-Day Weather Forecast

Advertisements
Track Severe Weather on mobile